PAGA

Edward G Pitka Sr Airport

Galena, Alaska, USA
PAGA 190528Z 1906/2006 10008KT P6SM OVC100 FM190800 04004KT P6SM FEW100 FEW200 FM191900 35007G13KT P6SM FEW100 FEW200 FM200200 32004KT P6SM FEW100 SCT200
Issued Valid From Valid To
Oct-19 @ 05:28 UTC
(4 hours ago)
Oct-19 @ 06:00 UTC
(3 hours ago)
Oct-20 @ 06:00 UTC
(in 21 hours)
Expired Click to View Oct-19 @ 06:00 to Oct-19 @ 08:00
PAGA 190528Z 1906/2006 10008KT P6SM OVC100
Wind Visibility Clouds
100° at 8 knots Greater than 6 miles
  • Overcast at 10,000' AGL
From Oct-19 @ 08:00 to Oct-19 @ 19:00
FM190800 04004KT P6SM FEW100 FEW200
Wind Visibility Clouds
40° at 4 knots Greater than 6 miles
  • Few at 10,000' AGL
  • Few at 20,000' AGL
From Oct-19 @ 19:00 to Oct-20 @ 02:00
FM191900 35007G13KT P6SM FEW100 FEW200
Wind Visibility Clouds
350° at 7 knots
 Gusting to 13 knots
Greater than 6 miles
  • Few at 10,000' AGL
  • Few at 20,000' AGL
From Oct-20 @ 02:00 to Oct-20 @ 06:00
FM200200 32004KT P6SM FEW100 SCT200
Wind Visibility Clouds
320° at 4 knots Greater than 6 miles
  • Few at 10,000' AGL
  • Scattered at 20,000' AGL
PAGA 190528Z 1906/2006 10008KT P6SM OVC100 FM190800 04004KT P6SM FEW100 FEW200 FM191900 35007G13KT P6SM FEW100 FEW200 FM200200 32004KT P6SM FEW100 SCT200
Issued Oct-19 @ 05:28 UTC
(4 hours ago)
Valid From Oct-19 @ 06:00 UTC
(3 hours ago)
Valid To Oct-20 @ 06:00 UTC
(in 21 hours)
Oct-19 @ 06:00 - Oct-19 @ 08:00
Wind Visibility
100° at 8 knots Greater than 6 miles
Clouds
  • Overcast at 10,000' AGL
From Oct-19 @ 08:00 - Oct-19 @ 19:00
Wind Visibility
40° at 4 knots Greater than 6 miles
Clouds
  • Few at 10,000' AGL
  • Few at 20,000' AGL
From Oct-19 @ 19:00 - Oct-20 @ 02:00
Wind Visibility
350° at 7 knots
 Gusting to 13 knots
Greater than 6 miles
Clouds
  • Few at 10,000' AGL
  • Few at 20,000' AGL
From Oct-20 @ 02:00 - Oct-20 @ 06:00
Wind Visibility
320° at 4 knots Greater than 6 miles
Clouds
  • Few at 10,000' AGL
  • Scattered at 20,000' AGL